Time;durP1;ratioP1;P1;durP2;ratioP2;P2;SDS_P1;SDS_P2;PMS_P1;PMS_P2;Temp;Humidity;BMP_temperature;BMP_pressure;BME280_temperature;BME280_humidity;BME280_pressure;Samples;Min_cycle;Max_cycle;Signal;HPM_P1;HPM_P2
2024/02/11 00:01:02;;;;;;;1.83;1.35;;;20.50;48.20;;;;;;5052892;28;20040;-59
2024/02/11 00:03:27;;;;;;;2.75;1.10;;;20.50;48.20;;;;;;5052246;28;20044;-59
2024/02/11 00:05:57;;;;;;;1.83;1.00;;;20.50;48.20;;;;;;5052542;28;20021;-55
2024/02/11 00:08:23;;;;;;;1.60;0.93;;;20.50;48.20;;;;;;5052264;28;20458;-58
2024/02/11 00:10:52;;;;;;;1.20;1.08;;;20.50;48.20;;;;;;5052390;28;20503;-58
2024/02/11 00:13:18;;;;;;;1.27;1.08;;;20.50;48.20;;;;;;5052167;28;20025;-58
2024/02/11 00:15:43;;;;;;;1.00;0.80;;;20.50;48.20;;;;;;5052755;28;20025;-57
2024/02/11 00:18:12;;;;;;;0.95;0.90;;;20.50;48.20;;;;;;5052781;28;20439;-59
2024/02/11 00:20:39;;;;;;;1.20;1.00;;;20.50;48.10;;;;;;5050053;28;20045;-60
2024/02/11 00:23:05;;;;;;;1.00;0.80;;;20.50;48.10;;;;;;5052114;28;20443;-59
2024/02/11 00:25:31;;;;;;;1.38;0.93;;;20.50;48.20;;;;;;5052145;28;20029;-59
2024/02/11 00:27:58;;;;;;;1.00;0.80;;;20.50;48.10;;;;;;5052421;28;20037;-58
2024/02/11 00:30:27;;;;;;;1.60;0.93;;;20.50;48.10;;;;;;5050294;28;20029;-58
2024/02/11 00:32:56;;;;;;;1.20;0.90;;;20.50;48.10;;;;;;5033778;28;20028;-59
2024/02/11 00:35:26;;;;;;;1.90;0.85;;;20.50;48.10;;;;;;5051833;28;20040;-58
2024/02/11 00:37:52;;;;;;;1.88;1.15;;;20.50;48.10;;;;;;5034256;28;20463;-59
2024/02/11 00:40:18;;;;;;;1.20;1.10;;;20.50;48.10;;;;;;5052051;28;20061;-59
2024/02/11 00:42:45;;;;;;;1.13;1.02;;;20.50;48.10;;;;;;5051550;28;20398;-59
2024/02/11 00:45:14;;;;;;;1.08;0.90;;;20.40;48.10;;;;;;5052256;28;20033;-59
2024/02/11 00:47:40;;;;;;;1.25;0.85;;;20.40;48.10;;;;;;5052358;28;20022;-56
2024/02/11 00:50:13;;;;;;;0.95;0.95;;;20.40;48.10;;;;;;5051647;28;20037;-58
2024/02/11 00:52:44;;;;;;;1.30;0.80;;;20.40;48.10;;;;;;5051184;28;20029;-59
2024/02/11 00:55:14;;;;;;;1.40;0.80;;;20.40;48.70;;;;;;5051967;28;20033;-59
2024/02/11 00:57:41;;;;;;;0.90;0.85;;;20.40;48.10;;;;;;5051951;28;20503;-58
2024/02/11 01:00:12;;;;;;;1.60;1.00;;;20.40;48.10;;;;;;5052312;28;20032;-57
2024/02/11 01:02:38;;;;;;;0.82;0.80;;;20.40;48.10;;;;;;5050282;28;20024;-59
2024/02/11 01:05:04;;;;;;;1.40;1.10;;;20.40;48.10;;;;;;5052320;28;20447;-57
2024/02/11 01:07:32;;;;;;;1.05;0.88;;;20.40;48.10;;;;;;5052102;28;20458;-60
2024/02/11 01:09:58;;;;;;;2.95;1.20;;;20.40;48.20;;;;;;5051951;28;20047;-58
2024/02/11 01:12:24;;;;;;;1.15;1.00;;;20.40;48.20;;;;;;5032900;28;20047;-59
2024/02/11 01:14:50;;;;;;;1.33;0.88;;;20.40;48.20;;;;;;5051945;28;20436;-59
2024/02/11 01:17:19;;;;;;;1.67;0.80;;;20.40;48.20;;;;;;5051809;28;20094;-59
2024/02/11 01:19:48;;;;;;;0.98;0.80;;;20.40;48.20;;;;;;5051432;28;20167;-60
2024/02/11 01:22:14;;;;;;;1.10;0.85;;;20.40;48.20;;;;;;5050046;28;20131;-57
2024/02/11 01:24:40;;;;;;;1.13;0.80;;;20.40;48.20;;;;;;5051762;28;20124;-58
2024/02/11 01:27:05;;;;;;;0.98;0.80;;;20.40;48.20;;;;;;5051651;28;20103;-59
2024/02/11 01:29:31;;;;;;;0.90;0.90;;;20.40;48.20;;;;;;5051869;28;20086;-59
2024/02/11 01:31:58;;;;;;;2.03;1.33;;;20.40;48.20;;;;;;5051807;28;20021;-58
2024/02/11 01:34:24;;;;;;;1.58;1.20;;;20.40;48.20;;;;;;5051652;28;20024;-59
2024/02/11 01:36:50;;;;;;;1.63;0.98;;;20.40;48.20;;;;;;5051631;28;20408;-58
2024/02/11 01:39:15;;;;;;;1.70;1.02;;;20.40;48.20;;;;;;5051806;28;20047;-59
2024/02/11 01:41:41;;;;;;;1.15;0.85;;;20.40;48.20;;;;;;5049555;28;20029;-59
2024/02/11 01:44:07;;;;;;;1.30;1.10;;;20.30;48.20;;;;;;5051353;28;20033;-58
2024/02/11 01:46:34;;;;;;;1.38;1.00;;;20.30;48.20;;;;;;5054003;28;20436;-56
2024/02/11 01:49:04;;;;;;;1.10;0.95;;;20.30;48.20;;;;;;5055001;28;20104;-59
2024/02/11 01:51:34;;;;;;;0.95;0.85;;;20.30;48.20;;;;;;5053107;28;20057;-59
2024/02/11 01:54:02;;;;;;;0.90;0.80;;;20.30;48.20;;;;;;5054703;28;20037;-60
2024/02/11 01:56:29;;;;;;;0.82;0.82;;;20.30;48.20;;;;;;5055205;28;20447;-57
2024/02/11 01:58:55;;;;;;;1.00;0.90;;;20.30;48.20;;;;;;5055161;28;20032;-59
2024/02/11 02:01:21;;;;;;;0.98;0.88;;;20.30;48.80;;;;;;5055569;28;20086;-58
2024/02/11 02:03:48;;;;;;;1.30;1.00;;;20.30;48.20;;;;;;5054828;28;20037;-59
2024/02/11 02:06:15;;;;;;;1.10;1.00;;;20.30;48.20;;;;;;5054221;28;20025;-57
2024/02/11 02:08:41;;;;;;;1.00;0.90;;;20.30;48.20;;;;;;5055000;28;20024;-60
2024/02/11 02:11:08;;;;;;;1.42;1.20;;;20.30;48.20;;;;;;5054765;28;20024;-57
2024/02/11 02:13:34;;;;;;;2.72;1.20;;;20.30;48.20;;;;;;5054592;28;20032;-59
2024/02/11 02:16:00;;;;;;;1.33;1.00;;;20.30;48.20;;;;;;5054779;28;20343;-58
2024/02/11 02:18:28;;;;;;;0.88;0.80;;;20.30;48.20;;;;;;5055088;28;20032;-59
2024/02/11 02:20:54;;;;;;;1.40;0.98;;;20.30;48.20;;;;;;5054296;28;20076;-60
2024/02/11 02:23:20;;;;;;;0.98;0.88;;;20.30;48.20;;;;;;5054456;28;20072;-58
2024/02/11 02:25:46;;;;;;;1.75;1.15;;;20.30;48.20;;;;;;5053942;28;20029;-57
2024/02/11 02:28:11;;;;;;;1.73;1.10;;;20.30;48.20;;;;;;5054546;28;20325;-59
2024/02/11 02:30:37;;;;;;;1.10;1.00;;;20.30;48.20;;;;;;5054070;28;20017;-60
2024/02/11 02:33:03;;;;;;;1.50;1.10;;;20.20;48.10;;;;;;5054299;28;20406;-59
2024/02/11 02:35:29;;;;;;;1.30;1.00;;;20.30;48.20;;;;;;5054246;28;20035;-59
2024/02/11 02:37:55;;;;;;;1.30;1.10;;;20.30;48.20;;;;;;5054529;28;20431;-59
2024/02/11 02:40:26;;;;;;;0.93;0.90;;;20.20;48.10;;;;;;5054427;28;20090;-60
2024/02/11 02:42:52;;;;;;;1.30;1.08;;;20.20;48.10;;;;;;5052380;28;20040;-56
2024/02/11 02:45:18;;;;;;;1.00;0.90;;;20.20;48.10;;;;;;5053715;28;20333;-58
2024/02/11 02:47:46;;;;;;;1.25;0.90;;;20.20;48.10;;;;;;5054390;28;20036;-55
2024/02/11 02:50:15;;;;;;;0.98;0.95;;;20.20;48.10;;;;;;5054020;28;20059;-59
2024/02/11 02:52:43;;;;;;;1.20;1.00;;;20.20;48.10;;;;;;5053938;28;20431;-59
2024/02/11 02:55:09;;;;;;;1.23;1.00;;;20.20;48.10;;;;;;5053234;28;20079;-59
2024/02/11 02:57:35;;;;;;;1.80;1.00;;;20.20;48.10;;;;;;5034629;28;20374;-59
2024/02/11 03:00:08;;;;;;;2.40;1.10;;;20.20;48.10;;;;;;5054284;28;20025;-58
2024/02/11 03:02:37;;;;;;;1.17;0.90;;;20.20;48.10;;;;;;5053051;28;20071;-61
2024/02/11 03:05:06;;;;;;;0.90;0.80;;;20.20;48.10;;;;;;5051716;28;20021;-57
2024/02/11 03:07:33;;;;;;;1.10;0.98;;;20.20;48.10;;;;;;5053828;28;20044;-57
2024/02/11 03:10:00;;;;;;;1.42;1.33;;;20.20;48.20;;;;;;5053664;28;20088;-60
2024/02/11 03:12:26;;;;;;;1.10;0.80;;;20.20;48.10;;;;;;5053645;28;20044;-57
2024/02/11 03:14:52;;;;;;;1.10;1.00;;;20.20;48.20;;;;;;5053566;28;20043;-57
2024/02/11 03:17:18;;;;;;;0.80;0.80;;;20.20;48.10;;;;;;5035593;28;20409;-57
2024/02/11 03:19:44;;;;;;;1.17;1.00;;;20.20;48.20;;;;;;5053123;28;20470;-59
2024/02/11 03:22:13;;;;;;;0.98;0.82;;;20.10;48.10;;;;;;5053407;28;20045;-56
2024/02/11 03:24:39;;;;;;;0.90;0.85;;;20.10;48.10;;;;;;5050950;28;20041;-58
2024/02/11 03:27:06;;;;;;;0.80;0.73;;;20.10;48.10;;;;;;5053442;28;20037;-54
2024/02/11 03:29:33;;;;;;;1.35;0.90;;;20.10;48.10;;;;;;5053344;28;20473;-58
2024/02/11 03:31:58;;;;;;;1.20;0.90;;;20.10;48.10;;;;;;5053131;28;21497;-58
2024/02/11 03:34:25;;;;;;;1.13;0.93;;;20.10;48.10;;;;;;5053637;28;20113;-58
2024/02/11 03:36:52;;;;;;;1.08;0.98;;;20.10;48.10;;;;;;5053219;28;20040;-59
2024/02/11 03:39:19;;;;;;;1.27;1.17;;;20.10;47.80;;;;;;5053332;28;20516;-58
2024/02/11 03:41:45;;;;;;;1.20;1.10;;;20.10;48.10;;;;;;5053181;28;20367;-58
2024/02/11 03:44:11;;;;;;;1.05;0.95;;;20.10;48.10;;;;;;5052871;28;20033;-58
2024/02/11 03:46:37;;;;;;;1.20;1.10;;;20.10;48.10;;;;;;5052662;28;20037;-56
2024/02/11 03:49:03;;;;;;;1.25;1.00;;;20.10;48.10;;;;;;5052461;28;20336;-59
2024/02/11 03:51:30;;;;;;;1.30;0.90;;;20.10;48.10;;;;;;5052695;28;20040;-58
2024/02/11 03:53:59;;;;;;;1.42;0.90;;;20.10;48.20;;;;;;5052589;28;20037;-57
2024/02/11 03:56:28;;;;;;;1.42;1.20;;;20.10;48.20;;;;;;5052974;28;20114;-57
2024/02/11 03:58:55;;;;;;;1.25;1.10;;;20.10;48.20;;;;;;5051398;28;20025;-55
2024/02/11 04:01:21;;;;;;;1.27;0.90;;;20.10;48.30;;;;;;5052876;28;20021;-58
2024/02/11 04:03:47;;;;;;;1.73;0.98;;;20.10;48.30;;;;;;5052448;28;20045;-58
2024/02/11 04:06:14;;;;;;;1.45;0.95;;;20.10;48.30;;;;;;5050832;28;20497;-57
2024/02/11 04:08:43;;;;;;;1.33;0.82;;;20.10;48.30;;;;;;5052403;28;20025;-59
2024/02/11 04:11:12;;;;;;;2.97;0.90;;;20.10;48.30;;;;;;5052437;28;20343;-58
2024/02/11 04:13:38;;;;;;;1.38;1.10;;;20.10;48.30;;;;;;5050721;28;20068;-58
2024/02/11 04:16:11;;;;;;;0.70;0.70;;;20.10;48.20;;;;;;5052167;28;20355;-59
2024/02/11 04:18:40;;;;;;;0.70;0.70;;;20.10;48.20;;;;;;5051802;28;20040;-60
2024/02/11 04:21:06;;;;;;;1.40;1.25;;;20.10;48.20;;;;;;5052605;28;20036;-59
2024/02/11 04:23:32;;;;;;;1.48;1.08;;;20.10;48.20;;;;;;5052251;28;20368;-58
2024/02/11 04:26:01;;;;;;;1.42;1.08;;;20.10;48.20;;;;;;5051909;28;20510;-60
2024/02/11 04:28:28;;;;;;;1.17;1.08;;;20.10;48.20;;;;;;5052368;28;20025;-59
2024/02/11 04:30:55;;;;;;;1.85;0.88;;;20.10;48.20;;;;;;5051539;28;20041;-58
2024/02/11 04:33:22;;;;;;;1.15;1.05;;;20.10;48.20;;;;;;5052264;28;20447;-60
2024/02/11 04:35:48;;;;;;;1.10;0.90;;;20.10;48.20;;;;;;5050032;28;20463;-59
2024/02/11 04:38:13;;;;;;;1.40;0.90;;;20.10;48.20;;;;;;5034052;28;20085;-58
2024/02/11 04:40:40;;;;;;;1.00;0.90;;;20.00;48.20;;;;;;5052399;28;20017;-58
2024/02/11 04:43:06;;;;;;;3.25;0.80;;;20.00;48.20;;;;;;5052224;28;20040;-57
2024/02/11 04:45:33;;;;;;;1.77;1.08;;;20.00;48.20;;;;;;5050773;28;20029;-58
2024/02/11 04:48:00;;;;;;;1.67;1.08;;;20.00;48.20;;;;;;5052227;28;20025;-58
2024/02/11 04:50:27;;;;;;;1.50;1.00;;;20.00;48.20;;;;;;5052421;28;20047;-57
2024/02/11 04:52:54;;;;;;;1.20;1.05;;;20.00;48.20;;;;;;5051874;28;20029;-58
2024/02/11 04:55:24;;;;;;;1.25;0.90;;;20.00;48.20;;;;;;5051859;28;20347;-59
2024/02/11 04:57:58;;;;;;;1.35;0.90;;;20.00;48.20;;;;;;5051923;28;20530;-58
2024/02/11 05:00:28;;;;;;;1.38;1.20;;;20.00;48.20;;;;;;5051784;28;20358;-58
2024/02/11 05:02:55;;;;;;;1.50;1.05;;;20.00;48.20;;;;;;5052127;28;20086;-58
2024/02/11 05:05:28;;;;;;;1.40;0.77;;;20.00;48.20;;;;;;5051698;28;20483;-57
2024/02/11 05:07:56;;;;;;;2.58;1.05;;;20.00;48.20;;;;;;5051982;28;20104;-58
2024/02/11 05:10:24;;;;;;;1.60;1.20;;;20.00;48.10;;;;;;5049614;28;20032;-54
2024/02/11 05:12:50;;;;;;;1.50;1.10;;;20.00;48.20;;;;;;5051967;28;20033;-58
2024/02/11 05:15:20;;;;;;;1.05;0.85;;;20.00;48.20;;;;;;5034163;28;20388;-56
2024/02/11 05:17:48;;;;;;;1.00;0.90;;;20.00;48.20;;;;;;5033950;28;20502;-58
2024/02/11 05:20:21;;;;;;;1.50;1.02;;;20.00;48.20;;;;;;5052306;28;20053;-58
2024/02/11 05:22:47;;;;;;;1.10;1.00;;;20.00;48.20;;;;;;5055441;28;20036;-58
2024/02/11 05:25:19;;;;;;;1.15;1.00;;;20.00;48.20;;;;;;5055897;28;20060;-57
2024/02/11 05:28:08;;;;;;;0.98;0.90;;;20.00;48.20;;;;;;5055969;28;20426;-56
2024/02/11 05:30:42;;;;;;;1.10;1.00;;;20.00;48.20;;;;;;5053737;28;20056;-59
2024/02/11 05:33:08;;;;;;;1.58;1.00;;;20.00;48.30;;;;;;5055206;28;20090;-58
2024/02/11 05:35:37;;;;;;;1.30;1.10;;;20.00;48.20;;;;;;5055266;28;20455;-59
2024/02/11 05:38:06;;;;;;;1.42;1.00;;;19.90;48.20;;;;;;5055645;28;20025;-59
2024/02/11 05:40:45;;;;;;;1.20;1.08;;;20.00;48.30;;;;;;5055429;28;20025;-59
2024/02/11 05:43:12;;;;;;;1.35;1.05;;;19.90;48.20;;;;;;5054845;28;20451;-57
2024/02/11 05:45:39;;;;;;;1.60;1.30;;;19.90;48.20;;;;;;5054619;28;20031;-59
2024/02/11 05:48:07;;;;;;;1.40;1.27;;;19.90;48.20;;;;;;5055718;28;20032;-59
2024/02/11 05:50:34;;;;;;;0.93;0.82;;;20.00;48.30;;;;;;5054777;28;20029;-57
2024/02/11 05:53:00;;;;;;;1.00;0.90;;;19.90;48.30;;;;;;5055202;28;20051;-59
2024/02/11 05:55:26;;;;;;;1.00;0.90;;;19.90;48.30;;;;;;5053112;28;20036;-57
2024/02/11 05:57:53;;;;;;;1.38;1.20;;;19.90;48.30;;;;;;5055241;28;20378;-58
2024/02/11 06:00:29;;;;;;;1.63;1.10;;;19.90;48.30;;;;;;5055283;28;20056;-59
2024/02/11 06:02:56;;;;;;;1.30;1.13;;;19.90;48.30;;;;;;5054698;28;20359;-59
2024/02/11 06:05:23;;;;;;;1.17;1.08;;;19.90;48.30;;;;;;5054797;28;20025;-56
2024/02/11 06:07:59;;;;;;;1.25;1.00;;;19.90;48.30;;;;;;5054846;28;20029;-58
2024/02/11 06:10:27;;;;;;;1.67;1.38;;;19.90;48.30;;;;;;5054471;28;20432;-59
2024/02/11 06:12:53;;;;;;;1.60;1.30;;;19.90;48.40;;;;;;5054627;28;20040;-59
2024/02/11 06:15:24;;;;;;;1.48;0.90;;;19.90;48.30;;;;;;5055209;28;20044;-59
2024/02/11 06:17:53;;;;;;;1.98;1.20;;;19.90;48.40;;;;;;5054711;28;20094;-59
2024/02/11 06:20:19;;;;;;;1.65;1.20;;;19.90;48.40;;;;;;5054319;28;20053;-59
2024/02/11 06:22:47;;;;;;;1.52;1.20;;;19.90;48.40;;;;;;5054686;28;20021;-58
2024/02/11 06:25:13;;;;;;;1.35;1.23;;;19.90;48.40;;;;;;5054303;28;20048;-60
2024/02/11 06:27:40;;;;;;;1.15;1.05;;;19.90;48.40;;;;;;5052173;28;20102;-58
2024/02/11 06:30:08;;;;;;;2.38;1.50;;;19.90;48.40;;;;;;5055027;28;20036;-59
2024/02/11 06:32:36;;;;;;;2.50;1.30;;;19.90;48.40;;;;;;5054051;28;20025;-57
2024/02/11 06:35:03;;;;;;;1.48;1.30;;;19.90;48.50;;;;;;5054303;28;20025;-59
2024/02/11 06:37:31;;;;;;;1.48;1.38;;;19.90;48.50;;;;;;5054430;28;20031;-59
2024/02/11 06:39:58;;;;;;;1.20;1.10;;;19.90;48.50;;;;;;5054271;28;20025;-58
2024/02/11 06:42:26;;;;;;;1.60;1.15;;;19.90;48.50;;;;;;5053783;28;20079;-60
2024/02/11 06:44:53;;;;;;;2.00;1.55;;;19.90;48.60;;;;;;5054187;28;20044;-59
2024/02/11 06:47:19;;;;;;;1.63;1.40;;;19.90;48.60;;;;;;5054179;28;20047;-59
2024/02/11 06:49:45;;;;;;;2.10;1.55;;;19.90;48.60;;;;;;5053722;28;20041;-59
2024/02/11 06:52:11;;;;;;;1.30;1.17;;;19.80;48.60;;;;;;5053801;28;20094;-57
2024/02/11 06:54:39;;;;;;;1.40;1.02;;;19.90;48.70;;;;;;5054508;28;20060;-59
2024/02/11 06:57:07;;;;;;;1.30;1.10;;;19.80;48.60;;;;;;5053901;28;20028;-58
2024/02/11 06:59:33;;;;;;;1.17;0.90;;;19.90;48.70;;;;;;5053904;28;20028;-59
2024/02/11 07:02:00;;;;;;;0.95;0.70;;;19.80;48.60;;;;;;5035784;28;20426;-57
2024/02/11 07:04:32;;;;;;;0.75;0.60;;;19.90;48.70;;;;;;5053448;28;20032;-58
2024/02/11 07:06:59;;;;;;;0.95;0.70;;;19.80;48.60;;;;;;5053650;28;20043;-58
2024/02/11 07:09:25;;;;;;;0.70;0.60;;;19.80;48.60;;;;;;5054216;28;20339;-58
2024/02/11 07:11:51;;;;;;;0.88;0.70;;;19.90;48.60;;;;;;5052913;28;20036;-59
2024/02/11 07:14:18;;;;;;;1.02;0.73;;;19.80;48.50;;;;;;5053886;28;20033;-58
2024/02/11 07:16:44;;;;;;;0.93;0.68;;;19.80;48.50;;;;;;5051132;28;20108;-58
2024/02/11 07:19:10;;;;;;;0.77;0.52;;;19.80;48.50;;;;;;5052700;28;20041;-59
2024/02/11 07:21:38;;;;;;;0.70;0.70;;;19.80;48.40;;;;;;5053056;28;20040;-59
2024/02/11 07:24:06;;;;;;;0.80;0.75;;;19.80;48.40;;;;;;5051991;28;20045;-58
2024/02/11 07:26:33;;;;;;;0.98;0.85;;;19.80;48.40;;;;;;5051498;28;20033;-59
2024/02/11 07:29:00;;;;;;;1.10;0.70;;;19.80;48.40;;;;;;5053722;28;20032;-59
2024/02/11 07:31:27;;;;;;;0.77;0.52;;;19.80;48.30;;;;;;5053226;28;20440;-59
2024/02/11 07:33:53;;;;;;;0.98;0.82;;;19.80;48.30;;;;;;5052625;28;20036;-59
2024/02/11 07:36:19;;;;;;;1.48;0.80;;;19.80;48.20;;;;;;5053231;28;20024;-60
2024/02/11 07:38:47;;;;;;;2.13;0.93;;;19.80;48.10;;;;;;5052958;28;20451;-56
2024/02/11 07:41:13;;;;;;;1.65;1.15;;;19.90;48.20;;;;;;5052744;28;20029;-61
2024/02/11 07:43:38;;;;;;;1.17;0.80;;;19.90;48.10;;;;;;5052385;28;20041;-60
2024/02/11 07:46:05;;;;;;;1.60;1.00;;;19.90;48.00;;;;;;5053001;28;20111;-60
2024/02/11 07:48:31;;;;;;;0.85;0.80;;;19.90;47.90;;;;;;5053036;28;20033;-59
2024/02/11 07:50:58;;;;;;;1.70;0.85;;;19.90;47.90;;;;;;5052417;28;20033;-59
2024/02/11 07:53:24;;;;;;;1.98;1.10;;;19.90;47.80;;;;;;5033547;28;20443;-59
2024/02/11 07:55:50;;;;;;;1.08;0.88;;;19.90;47.70;;;;;;5052607;28;20031;-59
2024/02/11 07:58:16;;;;;;;2.00;0.93;;;19.90;47.70;;;;;;5053384;28;20116;-59
2024/02/11 08:00:42;;;;;;;1.70;1.00;;;19.90;47.60;;;;;;5052758;28;20116;-57
2024/02/11 08:03:08;;;;;;;1.58;1.00;;;19.90;47.60;;;;;;5051005;28;20041;-57
2024/02/11 08:05:35;;;;;;;2.00;1.00;;;19.90;47.60;;;;;;5053253;28;20094;-57
2024/02/11 08:08:01;;;;;;;1.85;1.17;;;19.90;47.50;;;;;;5052926;28;20039;-57
2024/02/11 08:10:26;;;;;;;2.65;1.30;;;19.90;47.50;;;;;;5052334;28;20437;-58
2024/02/11 08:12:52;;;;;;;1.75;1.20;;;19.90;47.50;;;;;;5052344;28;20017;-59
2024/02/11 08:15:19;;;;;;;2.97;1.40;;;19.90;47.40;;;;;;5051941;28;20029;-57
2024/02/11 08:17:45;;;;;;;1.40;1.05;;;19.90;47.40;;;;;;5052248;28;20094;-59
2024/02/11 08:20:16;;;;;;;2.05;1.13;;;19.90;47.30;;;;;;5051617;28;20057;-60
2024/02/11 08:22:43;;;;;;;1.67;1.02;;;19.90;47.20;;;;;;5050404;28;20524;-59
2024/02/11 08:25:10;;;;;;;2.05;1.30;;;20.00;47.20;;;;;;5051462;28;20029;-58
2024/02/11 08:27:40;;;;;;;2.03;1.13;;;20.00;47.20;;;;;;5051864;28;20044;-58
2024/02/11 08:30:11;;;;;;;2.03;0.90;;;19.90;47.00;;;;;;5051480;28;20072;-53
2024/02/11 08:32:38;;;;;;;1.92;1.20;;;20.00;47.00;;;;;;5053034;28;20041;-58
2024/02/11 08:35:08;;;;;;;3.53;1.17;;;20.00;46.90;;;;;;5051637;28;20020;-57
2024/02/11 08:37:35;;;;;;;2.75;1.63;;;19.90;46.70;;;;;;5051992;28;20033;-57
2024/02/11 08:40:01;;;;;;;2.25;1.30;;;20.00;46.70;;;;;;5051893;28;20036;-59
2024/02/11 08:42:27;;;;;;;2.63;1.20;;;20.00;46.70;;;;;;5052302;28;20037;-57
2024/02/11 08:44:57;;;;;;;2.17;1.17;;;20.00;46.60;;;;;;5053253;28;20040;-58
2024/02/11 08:47:24;;;;;;;1.80;1.20;;;20.00;46.50;;;;;;5053360;28;20024;-54
2024/02/11 08:49:50;;;;;;;3.00;1.30;;;20.00;46.50;;;;;;5052889;28;20492;-57
2024/02/11 08:52:16;;;;;;;2.33;1.23;;;20.00;46.40;;;;;;5034563;28;20025;-57
2024/02/11 08:54:42;;;;;;;3.67;1.40;;;20.00;46.30;;;;;;5053703;28;20025;-58
2024/02/11 08:57:09;;;;;;;2.25;1.20;;;20.00;46.30;;;;;;5057213;28;20036;-58
2024/02/11 08:59:41;;;;;;;2.70;1.23;;;20.00;46.20;;;;;;5057158;28;20041;-58
2024/02/11 09:02:17;;;;;;;1.83;1.10;;;20.00;46.10;;;;;;5043879;28;20363;-57
2024/02/11 09:04:43;;;;;;;2.13;1.00;;;20.00;46.10;;;;;;5058858;28;20033;-59
2024/02/11 09:07:10;;;;;;;2.55;1.27;;;20.00;46.10;;;;;;5058781;28;20029;-55
2024/02/11 09:09:36;;;;;;;2.42;1.10;;;20.00;46.10;;;;;;5059756;28;20040;-55
2024/02/11 09:12:02;;;;;;;4.43;1.73;;;20.00;46.10;;;;;;5058502;28;20021;-58
2024/02/11 09:14:31;;;;;;;2.90;1.35;;;20.00;46.20;;;;;;5057614;28;20443;-56
2024/02/11 09:16:58;;;;;;;2.25;1.00;;;20.00;46.20;;;;;;5058722;28;20220;-57
2024/02/11 09:19:27;;;;;;;4.32;1.60;;;20.00;46.20;;;;;;5058615;28;20063;-58
2024/02/11 09:21:59;;;;;;;2.67;1.30;;;20.00;46.10;;;;;;5058203;28;20036;-55
2024/02/11 09:24:25;;;;;;;2.75;1.50;;;20.00;46.10;;;;;;5058131;28;20547;-57
2024/02/11 09:26:52;;;;;;;2.17;1.25;;;20.00;46.20;;;;;;5057842;28;20371;-55
2024/02/11 09:29:20;;;;;;;2.67;1.70;;;20.10;46.40;;;;;;5057893;28;20091;-56
2024/02/11 09:31:46;;;;;;;2.70;1.65;;;20.00;46.30;;;;;;5058673;28;20024;-59
2024/02/11 09:34:12;;;;;;;1.30;0.90;;;20.10;46.40;;;;;;5058235;28;20035;-64
2024/02/11 09:36:41;;;;;;;1.17;0.73;;;20.10;46.40;;;;;;5057974;28;20041;-63
2024/02/11 09:39:10;;;;;;;0.50;0.47;;;20.10;46.30;;;;;;5040875;28;20372;-64
2024/02/11 09:41:37;;;;;;;1.63;0.70;;;20.10;46.40;;;;;;5058239;28;20033;-65
2024/02/11 09:44:04;;;;;;;1.83;0.93;;;20.10;46.30;;;;;;5057856;28;20036;-62
2024/02/11 09:46:37;;;;;;;1.23;1.00;;;20.10;46.40;;;;;;5058378;28;20044;-57
2024/02/11 09:49:25;;;;;;;2.33;1.35;;;20.10;46.30;;;;;;5058311;28;20052;-58
2024/02/11 09:51:54;;;;;;;1.85;1.20;;;20.10;46.20;;;;;;5057992;28;20163;-58
2024/02/11 09:54:23;;;;;;;2.58;1.40;;;20.00;46.20;;;;;;5057570;28;20348;-55
2024/02/11 09:56:48;;;;;;;2.30;1.70;;;20.00;46.20;;;;;;5058492;28;20044;-58
2024/02/11 09:59:14;;;;;;;2.97;1.30;;;20.00;46.20;;;;;;5058044;28;20037;-55
2024/02/11 10:01:43;;;;;;;2.65;1.52;;;20.00;46.20;;;;;;5058169;28;20040;-58
2024/02/11 10:04:11;;;;;;;3.22;1.50;;;20.10;46.20;;;;;;5057475;28;20052;-59
2024/02/11 10:06:42;;;;;;;3.05;1.50;;;20.00;46.20;;;;;;5057135;28;20033;-54
2024/02/11 10:09:12;;;;;;;2.40;1.30;;;20.10;46.20;;;;;;5056849;28;20104;-56
2024/02/11 10:11:39;;;;;;;2.65;1.25;;;20.10;46.30;;;;;;5057463;28;20029;-55
2024/02/11 10:14:11;;;;;;;2.67;1.13;;;20.10;46.30;;;;;;5057624;28;20127;-58
2024/02/11 10:16:37;;;;;;;2.53;1.20;;;20.20;46.30;;;;;;5057321;28;20032;-54
2024/02/11 10:19:05;;;;;;;1.73;1.02;;;20.20;46.30;;;;;;5057629;28;20036;-56
2024/02/11 10:21:31;;;;;;;2.58;1.25;;;20.30;46.30;;;;;;5057557;28;20313;-60
2024/02/11 10:23:57;;;;;;;2.35;1.10;;;20.30;46.20;;;;;;5056357;28;20036;-56
2024/02/11 10:26:23;;;;;;;3.58;1.52;;;20.40;46.20;;;;;;5056230;28;20447;-58
2024/02/11 10:28:49;;;;;;;3.58;1.13;;;20.40;46.20;;;;;;5057509;28;20043;-57
2024/02/11 10:31:15;;;;;;;4.68;1.73;;;20.50;46.10;;;;;;5077456;28;20506;-52
2024/02/11 10:33:41;;;;;;;5.40;2.20;;;20.50;46.00;;;;;;5060307;28;20074;-57
2024/02/11 10:36:08;;;;;;;5.13;2.88;;;20.60;46.40;;;;;;5055851;28;20056;-51
2024/02/11 10:38:34;;;;;;;5.35;3.17;;;20.60;46.80;;;;;;5055529;28;20052;-53
2024/02/11 10:41:01;;;;;;;9.80;3.17;;;20.80;47.50;;;;;;5055590;28;20112;-55
2024/02/11 10:43:28;;;;;;;6.63;3.47;;;20.80;48.00;;;;;;5055727;28;20109;-57
2024/02/11 10:45:54;;;;;;;7.65;3.53;;;20.90;48.50;;;;;;5055755;28;20049;-66
2024/02/11 10:48:21;;;;;;;3.80;2.13;;;21.00;48.90;;;;;;5055342;28;20051;-67
2024/02/11 10:50:55;;;;;;;2.97;1.42;;;21.00;48.40;;;;;;5055411;28;20021;-70
2024/02/11 10:53:23;;;;;;;2.38;1.50;;;21.00;47.80;;;;;;5055821;28;20136;-68
2024/02/11 10:55:50;;;;;;;2.08;1.20;;;21.00;47.50;;;;;;5055679;28;20379;-60
2024/02/11 10:58:18;;;;;;;4.13;1.33;;;20.90;47.40;;;;;;5055083;28;20048;-60
2024/02/11 11:00:49;;;;;;;3.17;1.73;;;20.90;47.30;;;;;;5055103;28;20025;-60
2024/02/11 11:03:20;;;;;;;3.03;1.70;;;20.90;47.30;;;;;;5055501;28;20025;-60
2024/02/11 11:05:47;;;;;;;4.75;2.45;;;21.00;47.30;;;;;;5055044;28;20464;-57
2024/02/11 11:08:14;;;;;;;7.45;3.90;;;21.10;47.30;;;;;;5054916;28;20029;-54
2024/02/11 11:10:40;;;;;;;9.32;4.50;;;21.10;47.60;;;;;;5054585;28;20103;-56
2024/02/11 11:13:09;;;;;;;9.43;5.20;;;21.20;48.10;;;;;;5055227;28;20060;-55
2024/02/11 11:15:34;;;;;;;7.72;4.85;;;21.30;48.80;;;;;;5052959;28;20043;-54
2024/02/11 11:18:01;;;;;;;10.85;4.70;;;21.30;49.10;;;;;;5053580;28;20029;-61
2024/02/11 11:20:27;;;;;;;11.02;4.90;;;21.40;49.50;;;;;;5054356;28;20053;-62
2024/02/11 11:22:57;;;;;;;11.05;5.05;;;21.40;49.80;;;;;;5054654;28;20021;-58
2024/02/11 11:25:31;;;;;;;10.13;5.35;;;21.50;50.00;;;;;;5054467;28;20021;-62
2024/02/11 11:28:16;;;;;;;7.35;4.78;;;21.50;50.30;;;;;;5054902;28;20439;-60
2024/02/11 11:30:42;;;;;;;;;;;21.50;50.60;;;;;;5054295;28;20033;-62
2024/02/11 11:33:10;;;;;;;8.10;3.95;;;21.50;50.90;;;;;;5055493;28;19943;-58
2024/02/11 11:35:36;;;;;;;9.20;4.45;;;21.50;51.00;;;;;;5055674;28;20043;-57
2024/02/11 11:38:02;;;;;;;8.23;4.05;;;21.60;51.00;;;;;;5055578;28;20360;-57
2024/02/11 11:40:36;;;;;;;6.30;3.83;;;21.60;50.80;;;;;;5056323;28;20370;-55
2024/02/11 11:43:16;;;;;;;6.13;3.50;;;21.50;50.50;;;;;;5050859;28;20021;-58
2024/02/11 11:45:59;;;;;;;7.60;3.33;;;21.60;50.00;;;;;;5051609;28;20037;-59
2024/02/11 11:48:26;;;;;;;5.40;3.28;;;21.60;49.60;;;;;;5045425;28;20032;-55
2024/02/11 11:51:03;;;;;;;5.22;2.95;;;21.60;49.20;;;;;;5041685;28;20040;-57
2024/02/11 11:53:29;;;;;;;4.43;2.63;;;21.60;48.80;;;;;;5052320;28;20033;-56
2024/02/11 11:55:57;;;;;;;6.07;2.88;;;21.60;48.60;;;;;;5051747;28;20025;-56
2024/02/11 11:58:27;;;;;;;5.57;3.13;;;21.50;48.30;;;;;;5051579;28;20029;-57
2024/02/11 12:00:59;;;;;;;3.90;2.45;;;21.50;48.10;;;;;;5048508;28;20032;-55
2024/02/11 12:03:26;;;;;;;5.95;2.60;;;21.50;47.90;;;;;;5050257;28;20032;-56
2024/02/11 12:05:53;;;;;;;3.90;2.47;;;21.50;47.70;;;;;;5050056;28;20103;-56
2024/02/11 12:08:20;;;;;;;3.85;2.30;;;21.50;47.50;;;;;;5050222;28;20036;-56
2024/02/11 12:11:00;;;;;;;4.95;2.40;;;21.50;47.40;;;;;;5047434;28;20336;-53
2024/02/11 12:13:29;;;;;;;4.22;1.98;;;21.40;47.10;;;;;;5048363;28;20359;-57
2024/02/11 12:15:57;;;;;;;3.67;2.30;;;21.40;47.10;;;;;;5045511;28;20099;-55
2024/02/11 12:18:25;;;;;;;3.80;1.95;;;21.50;47.00;;;;;;5047949;28;20048;-57
2024/02/11 12:20:53;;;;;;;5.18;2.58;;;21.40;46.80;;;;;;5050457;28;20455;-54
2024/02/11 12:23:19;;;;;;;3.83;2.05;;;21.40;46.70;;;;;;5049674;28;20448;-58
2024/02/11 12:25:52;;;;;;;2.90;1.92;;;21.40;46.60;;;;;;5049496;28;20028;-56
2024/02/11 12:28:26;;;;;;;4.57;2.27;;;21.30;46.40;;;;;;5050050;28;20095;-53
2024/02/11 12:31:04;;;;;;;3.67;2.05;;;21.30;46.40;;;;;;5049988;28;20365;-57
2024/02/11 12:33:29;;;;;;;3.50;2.00;;;21.30;46.40;;;;;;5050902;28;20032;-56
2024/02/11 12:35:55;;;;;;;3.08;1.80;;;21.30;46.40;;;;;;5051132;28;20022;-57
2024/02/11 12:38:21;;;;;;;3.58;1.83;;;21.30;46.40;;;;;;5035203;28;20029;-57
2024/02/11 12:40:47;;;;;;;3.45;1.67;;;21.30;46.40;;;;;;5070897;28;20029;-56
2024/02/11 12:43:13;;;;;;;3.03;1.70;;;21.30;46.30;;;;;;5070687;28;20459;-57
2024/02/11 12:45:40;;;;;;;3.28;1.70;;;21.30;46.30;;;;;;5067420;28;20025;-59
2024/02/11 12:48:07;;;;;;;3.30;1.85;;;21.30;46.30;;;;;;5042225;28;20029;-57
2024/02/11 12:50:33;;;;;;;4.47;1.98;;;21.30;46.30;;;;;;5052670;28;20381;-56